createdAt,value
2023-02-12T00:01:47.327Z,6.22
2023-02-12T00:04:16.951Z,6.20
2023-02-12T00:06:43.638Z,6.20
2023-02-12T00:09:10.387Z,6.19
2023-02-12T00:11:37.042Z,6.18
2023-02-12T00:14:05.683Z,6.15
2023-02-12T00:16:32.350Z,6.15
2023-02-12T00:19:05.056Z,6.14
2023-02-12T00:21:32.011Z,6.15
2023-02-12T00:24:09.261Z,6.15
2023-02-12T00:26:36.559Z,6.14
2023-02-12T00:29:05.661Z,6.14
2023-02-12T00:31:32.812Z,6.14
2023-02-12T00:34:00.979Z,6.11
2023-02-12T00:36:32.608Z,6.09
2023-02-12T00:39:02.907Z,6.09
2023-02-12T00:41:33.221Z,6.05
2023-02-12T00:44:02.393Z,6.06
2023-02-12T00:46:32.186Z,6.07
2023-02-12T00:49:09.965Z,6.05
2023-02-12T00:51:37.962Z,6.05
2023-02-12T00:54:07.135Z,6.04
2023-02-12T00:56:33.779Z,6.05
2023-02-12T00:59:03.004Z,6.03
2023-02-12T01:01:29.674Z,6.00
2023-02-12T01:03:56.382Z,6.02
2023-02-12T01:06:23.101Z,6.01
2023-02-12T01:08:53.487Z,6.01
2023-02-12T01:11:20.817Z,6.01
2023-02-12T01:13:47.482Z,5.99
2023-02-12T01:16:20.887Z,6.02
2023-02-12T01:18:55.275Z,6.05
2023-02-12T01:21:29.032Z,6.00
2023-02-12T01:23:56.704Z,5.95
2023-02-12T01:26:25.029Z,5.97
2023-02-12T01:28:57.114Z,5.96
2023-02-12T01:31:30.679Z,5.94
2023-02-12T01:34:00.662Z,5.94
2023-02-12T01:36:30.806Z,5.91
2023-02-12T01:38:59.137Z,5.94
2023-02-12T01:41:36.273Z,5.93
2023-02-12T01:44:21.043Z,5.93
2023-02-12T01:46:55.890Z,5.93
2023-02-12T01:49:35.914Z,5.96
2023-02-12T01:52:24.935Z,5.98
2023-02-12T01:54:58.197Z,5.98
2023-02-12T01:57:28.412Z,5.98
2023-02-12T02:00:00.530Z,6.00
2023-02-12T02:02:28.864Z,6.00
2023-02-12T02:05:04.794Z,5.99
2023-02-12T02:07:31.993Z,6.01
2023-02-12T02:10:00.176Z,5.99
2023-02-12T02:12:46.450Z,6.01
2023-02-12T02:15:13.151Z,6.08
2023-02-12T02:18:09.130Z,6.07
2023-02-12T02:21:31.932Z,6.05
2023-02-12T02:25:04.095Z,6.05
2023-02-12T02:27:52.620Z,6.07
2023-02-12T02:30:36.105Z,6.08
2023-02-12T02:33:52.036Z,6.06
2023-02-12T02:37:00.090Z,6.03
2023-02-12T02:39:51.928Z,6.01
2023-02-12T02:42:41.381Z,6.04
2023-02-12T02:45:34.438Z,6.03
2023-02-12T02:48:26.558Z,6.04
2023-02-12T02:51:08.294Z,6.00
2023-02-12T02:54:00.782Z,6.00
2023-02-12T02:56:30.419Z,5.97
2023-02-12T02:59:17.967Z,6.04
2023-02-12T03:02:03.175Z,6.04
2023-02-12T03:04:52.981Z,6.07
2023-02-12T03:07:37.744Z,6.03
2023-02-12T03:10:22.772Z,6.00
2023-02-12T03:13:12.405Z,5.99
2023-02-12T03:18:57.157Z,6.02
2023-02-12T03:21:43.532Z,5.99
2023-02-12T03:24:46.980Z,5.96
2023-02-12T03:27:29.439Z,5.99
2023-02-12T03:29:58.606Z,5.99
2023-02-12T03:32:58.304Z,5.97
2023-02-12T03:35:44.395Z,6.01
2023-02-12T03:38:37.125Z,6.04
2023-02-12T03:41:26.310Z,5.99
2023-02-12T03:44:14.122Z,6.00
2023-02-12T03:47:19.327Z,5.99
2023-02-12T03:50:35.322Z,5.99
2023-02-12T03:53:02.448Z,6.10
2023-02-12T03:55:36.651Z,6.08
2023-02-12T03:58:11.804Z,6.04
2023-02-12T04:00:43.977Z,5.99
2023-02-12T04:03:14.489Z,6.02
2023-02-12T04:05:44.140Z,6.03
2023-02-12T04:08:14.278Z,6.02
2023-02-12T04:11:35.674Z,6.07
2023-02-12T04:14:37.331Z,6.03
2023-02-12T04:17:41.091Z,6.01
2023-02-12T04:20:47.118Z,5.99
2023-02-12T04:23:55.939Z,6.02
2023-02-12T04:26:52.124Z,6.01
2023-02-12T04:29:52.444Z,6.03
2023-02-12T04:32:51.813Z,6.01
2023-02-12T04:35:31.780Z,5.99
2023-02-12T04:38:28.569Z,5.98
2023-02-12T04:40:56.758Z,5.97
2023-02-12T04:43:36.605Z,5.97
2023-02-12T04:46:11.243Z,5.95
2023-02-12T04:49:03.189Z,5.97
2023-02-12T04:51:29.868Z,5.97
2023-02-12T04:53:56.497Z,5.96
2023-02-12T04:56:23.101Z,5.98
2023-02-12T04:58:53.740Z,5.97
2023-02-12T05:01:22.340Z,5.97
2023-02-12T05:03:53.020Z,5.96
2023-02-12T05:06:19.905Z,5.97
2023-02-12T05:08:46.616Z,5.97
2023-02-12T05:11:28.569Z,5.94
2023-02-12T05:13:55.522Z,5.96
2023-02-12T05:16:23.317Z,5.93
2023-02-12T05:18:53.064Z,5.91
2023-02-12T05:21:27.369Z,5.88
2023-02-12T05:23:54.054Z,5.89
2023-02-12T05:26:23.008Z,5.87
2023-02-12T05:28:52.692Z,5.84
2023-02-12T05:31:21.598Z,5.80
2023-02-12T05:33:53.184Z,5.81
2023-02-12T05:36:23.936Z,5.82
2023-02-12T05:38:58.696Z,5.80
2023-02-12T05:41:26.654Z,5.79
2023-02-12T05:43:54.096Z,5.81
2023-02-12T05:46:22.534Z,5.78
2023-02-12T05:48:51.629Z,5.75
2023-02-12T05:51:26.327Z,5.76
2023-02-12T05:54:01.730Z,5.78
2023-02-12T05:56:45.352Z,5.73
2023-02-12T05:59:23.448Z,5.72
2023-02-12T06:01:52.217Z,5.69
2023-02-12T06:04:27.967Z,5.66
2023-02-12T06:06:56.335Z,5.64
2023-02-12T06:09:24.665Z,5.63
2023-02-12T06:11:52.220Z,5.64
2023-02-12T06:14:20.781Z,5.62
2023-02-12T06:16:52.244Z,5.61
2023-02-12T06:19:20.328Z,5.60
2023-02-12T06:21:55.962Z,5.59
2023-02-12T06:24:25.446Z,5.58
2023-02-12T06:26:52.912Z,5.58
2023-02-12T06:29:22.156Z,5.56
2023-02-12T06:31:49.707Z,5.54
2023-02-12T06:34:19.906Z,5.52
2023-02-12T06:36:48.493Z,5.51
2023-02-12T06:39:18.354Z,5.47
2023-02-12T06:41:50.111Z,5.45
2023-02-12T06:44:16.933Z,5.43
2023-02-12T06:57:32.541Z,5.42
2023-02-12T07:02:42.046Z,5.43
2023-02-12T07:05:08.803Z,5.41
2023-02-12T07:07:35.581Z,5.45
2023-02-12T07:10:03.055Z,5.48
2023-02-12T07:12:29.728Z,5.50
2023-02-12T07:14:56.343Z,5.51
2023-02-12T07:17:23.026Z,5.55
2023-02-12T07:19:49.951Z,5.56
2023-02-12T07:22:19.372Z,5.61
2023-02-12T07:30:19.683Z,5.69
2023-02-12T07:32:46.424Z,5.69
2023-02-12T09:11:26.521Z,7.45
2023-02-12T09:32:48.400Z,8.03
2023-02-12T09:35:15.250Z,8.29
2023-02-12T09:37:44.876Z,8.32
2023-02-12T09:40:59.115Z,8.41
2023-02-12T09:43:45.250Z,8.50
2023-02-12T09:46:49.684Z,8.36
2023-02-12T09:49:50.733Z,8.43
2023-02-12T09:52:24.377Z,8.55
2023-02-12T09:54:55.999Z,8.59
2023-02-12T09:57:35.984Z,8.86
2023-02-12T10:00:31.160Z,8.96
2023-02-12T10:03:11.743Z,9.01
2023-02-12T10:05:52.116Z,8.82
2023-02-12T10:09:12.815Z,9.07
2023-02-12T10:12:04.376Z,9.49
2023-02-12T10:15:15.340Z,9.57
2023-02-12T10:18:21.255Z,9.37
2023-02-12T10:21:30.894Z,9.51
2023-02-12T10:25:06.298Z,9.85
2023-02-12T10:28:02.289Z,9.86
2023-02-12T10:31:00.668Z,9.89
2023-02-12T10:33:38.809Z,9.63
2023-02-12T10:36:45.309Z,9.73
2023-02-12T10:39:14.848Z,9.42
2023-02-12T10:42:16.281Z,9.61
2023-02-12T10:44:43.038Z,9.46
2023-02-12T10:47:26.298Z,9.38
2023-02-12T10:50:04.689Z,9.34
2023-02-12T10:53:03.580Z,9.59
2023-02-12T10:55:41.780Z,9.54
2023-02-12T10:58:24.254Z,9.51
2023-02-12T11:01:02.267Z,9.68
2023-02-12T11:03:42.187Z,9.66
2023-02-12T11:06:28.018Z,10.00
2023-02-12T11:08:57.528Z,10.29
2023-02-12T11:11:38.761Z,10.49
2023-02-12T11:14:30.444Z,10.54
2023-02-12T11:17:02.700Z,10.77
2023-02-12T11:19:34.975Z,10.63
2023-02-12T11:22:14.615Z,10.40
2023-02-12T11:25:01.996Z,10.07
2023-02-12T11:27:33.907Z,9.99
2023-02-12T11:30:24.514Z,9.84
2023-02-12T11:32:52.247Z,9.84
2023-02-12T11:35:29.579Z,9.98
2023-02-12T11:37:59.501Z,9.89
2023-02-12T11:40:33.963Z,9.94
2023-02-12T11:43:07.633Z,10.08
2023-02-12T11:45:56.268Z,10.19
2023-02-12T11:48:41.383Z,10.65
2023-02-12T11:59:38.710Z,10.95
2023-02-12T12:22:44.264Z,10.73
2023-02-12T12:25:36.179Z,10.74
2023-02-12T12:41:15.909Z,9.88
2023-02-12T13:28:38.430Z,8.92
2023-02-12T14:32:01.602Z,8.10
2023-02-12T14:34:38.916Z,8.06
2023-02-12T14:37:38.165Z,8.00
2023-02-12T14:40:33.188Z,7.97
2023-02-12T15:32:51.849Z,7.19
2023-02-12T15:35:45.088Z,7.23
2023-02-12T15:38:43.942Z,7.21
2023-02-12T15:41:33.180Z,7.25
2023-02-12T15:44:23.721Z,7.22
2023-02-12T15:47:17.122Z,7.21
2023-02-12T15:50:00.512Z,7.12
2023-02-12T15:52:52.279Z,7.03
2023-02-12T15:55:42.610Z,6.95
2023-02-12T15:59:07.351Z,6.85
2023-02-12T16:01:37.839Z,6.81
2023-02-12T16:04:19.856Z,6.76
2023-02-12T16:06:53.425Z,6.74
2023-02-12T16:09:35.859Z,6.68
2023-02-12T16:12:13.559Z,6.67
2023-02-12T16:15:03.387Z,6.64
2023-02-12T16:17:38.478Z,6.60
2023-02-12T16:20:24.772Z,6.62
2023-02-12T16:23:09.828Z,6.57
2023-02-12T16:28:32.291Z,6.55
2023-02-12T16:31:18.604Z,6.53
2023-02-12T16:34:04.108Z,6.53
2023-02-12T16:36:35.360Z,6.55
2023-02-12T16:39:30.857Z,6.56
2023-02-12T16:42:00.444Z,6.53
2023-02-12T16:44:37.381Z,6.53
2023-02-12T16:47:15.222Z,6.51
2023-02-12T16:50:03.456Z,6.53
2023-02-12T16:52:45.310Z,6.50
2023-02-12T16:55:20.633Z,6.51
2023-02-12T16:57:47.564Z,6.47
2023-02-12T17:00:20.525Z,6.49
2023-02-12T17:02:58.063Z,6.50
2023-02-12T17:05:24.866Z,6.47
2023-02-12T17:07:51.835Z,6.46
2023-02-12T17:10:22.131Z,6.44
2023-02-12T17:12:53.493Z,6.41
2023-02-12T17:15:38.861Z,6.42
2023-02-12T17:18:05.889Z,6.41
2023-02-12T17:21:47.066Z,6.40
2023-02-12T17:24:26.998Z,6.43
2023-02-12T17:26:55.633Z,6.43
2023-02-12T17:29:26.241Z,6.39
2023-02-12T17:31:55.297Z,6.37
2023-02-12T17:34:50.775Z,6.33
2023-02-12T17:37:27.336Z,6.31
2023-02-12T17:40:04.032Z,6.31
2023-02-12T17:42:36.461Z,6.30
2023-02-12T17:45:07.356Z,6.31
2023-02-12T17:47:54.196Z,6.29
2023-02-12T17:50:21.199Z,6.32
2023-02-12T17:52:55.395Z,6.31
2023-02-12T17:55:43.358Z,6.28
2023-02-12T17:58:10.063Z,6.28
2023-02-12T18:00:46.408Z,6.26
2023-02-12T18:03:13.024Z,6.26
2023-02-12T18:05:53.452Z,6.25
2023-02-12T18:08:20.356Z,6.21
2023-02-12T18:10:56.428Z,6.19
2023-02-12T18:13:34.787Z,6.20
2023-02-12T18:16:11.611Z,6.19
2023-02-12T18:21:35.716Z,6.19
2023-02-12T18:24:04.778Z,6.16
2023-02-12T18:26:57.782Z,6.14
2023-02-12T18:29:27.415Z,6.14
2023-02-12T18:31:55.351Z,6.13
2023-02-12T18:34:22.214Z,6.12
2023-02-12T18:36:55.343Z,6.11
2023-02-12T18:39:22.070Z,6.13
2023-02-12T18:41:54.338Z,6.11
2023-02-12T18:44:21.117Z,6.08
2023-02-12T18:46:56.915Z,6.09
2023-02-12T18:49:23.554Z,6.09
2023-02-12T18:51:59.815Z,6.04
2023-02-12T18:54:26.794Z,6.03
2023-02-12T18:56:58.588Z,6.04
2023-02-12T18:59:27.242Z,6.03
2023-02-12T19:01:55.290Z,6.02
2023-02-12T19:07:08.501Z,6.02
2023-02-12T19:26:20.063Z,5.96
2023-02-12T20:02:26.716Z,5.92
2023-02-12T20:05:05.287Z,5.89
2023-02-12T20:18:42.407Z,5.86
2023-02-12T20:32:11.035Z,5.90
2023-02-12T21:27:14.849Z,5.75
2023-02-12T22:47:09.630Z,5.72
2023-02-12T22:49:36.326Z,5.67
2023-02-12T22:52:06.136Z,5.66
2023-02-12T23:08:45.747Z,5.65
2023-02-12T23:11:12.497Z,5.70
2023-02-12T23:13:45.223Z,5.68
2023-02-12T23:16:19.039Z,5.66
2023-02-12T23:18:52.046Z,5.65
2023-02-12T23:21:21.885Z,5.66
2023-02-12T23:23:51.697Z,5.67
2023-02-12T23:26:18.383Z,5.66
2023-02-12T23:28:50.660Z,5.68
2023-02-12T23:31:23.899Z,5.67
2023-02-12T23:33:56.797Z,5.69
2023-02-12T23:36:23.418Z,5.68
2023-02-12T23:38:53.276Z,5.66
2023-02-12T23:41:22.316Z,5.67
2023-02-12T23:43:57.665Z,5.63
2023-02-12T23:46:24.472Z,5.61
2023-02-12T23:48:51.189Z,5.61
2023-02-12T23:51:21.052Z,5.60
2023-02-12T23:53:49.592Z,5.64
2023-02-12T23:56:16.342Z,5.62
2023-02-12T23:58:50.822Z,5.62
